Time;durP1;ratioP1;P1;durP2;ratioP2;P2;SDS_P1;SDS_P2;PMS_P1;PMS_P2;Temp;Humidity;BMP_temperature;BMP_pressure;BME280_temperature;BME280_humidity;BME280_pressure;Samples;Min_cycle;Max_cycle;Signal;HPM_P1;HPM_P2
2021/12/22 00:01:52;;;;;;;1.92;1.80;;;-3.50;99.90;;;;;;4876670;29;20060;-63
2021/12/22 00:04:23;;;;;;;2.47;2.17;;;-3.60;99.90;;;;;;4875891;29;21427;-64
2021/12/22 00:06:51;;;;;;;3.40;2.67;;;-3.60;99.90;;;;;;4877614;29;20051;-65
2021/12/22 00:09:18;;;;;;;4.00;2.65;;;-3.60;99.90;;;;;;4876902;29;20171;-68
2021/12/22 00:11:45;;;;;;;2.57;2.10;;;-3.60;99.90;;;;;;4875774;29;20139;-64
2021/12/22 00:14:12;;;;;;;3.70;2.57;;;-3.60;99.90;;;;;;4876964;29;20563;-69
2021/12/22 00:16:39;;;;;;;2.90;2.37;;;-3.70;99.90;;;;;;4875660;29;20112;-63
2021/12/22 00:19:06;;;;;;;3.03;2.37;;;-3.80;99.90;;;;;;4876692;29;21882;-64
2021/12/22 00:21:33;;;;;;;10.43;3.60;;;-3.80;99.90;;;;;;4877768;29;20143;-65
2021/12/22 00:24:00;;;;;;;4.73;3.10;;;-3.90;99.90;;;;;;4876581;29;20057;-64
2021/12/22 00:26:28;;;;;;;3.23;2.47;;;-3.90;99.90;;;;;;4873968;29;20121;-63
2021/12/22 00:28:55;;;;;;;3.23;2.73;;;-4.00;99.90;;;;;;4875404;29;20152;-66
2021/12/22 00:31:22;;;;;;;2.77;2.33;;;-4.00;99.90;;;;;;4874918;29;20147;-66
2021/12/22 00:33:52;;;;;;;6.73;4.70;;;-4.10;99.90;;;;;;4875135;29;20681;-67
2021/12/22 00:36:22;;;;;;;3.63;3.33;;;-4.10;99.90;;;;;;4875940;29;20810;-68
2021/12/22 00:38:51;;;;;;;3.90;2.75;;;-4.20;99.90;;;;;;4876585;29;20108;-66
2021/12/22 00:41:18;;;;;;;5.67;3.33;;;-4.20;99.90;;;;;;4877095;29;20495;-69
2021/12/22 00:43:45;;;;;;;3.87;3.43;;;-4.30;99.90;;;;;;4876906;29;20174;-68
2021/12/22 00:46:13;;;;;;;6.00;4.57;;;-4.40;99.90;;;;;;4874085;29;20176;-68
2021/12/22 00:48:40;;;;;;;5.03;3.40;;;-4.50;99.90;;;;;;4878130;29;20060;-66
2021/12/22 00:51:08;;;;;;;3.47;3.00;;;-4.60;99.90;;;;;;4880591;29;20196;-67
2021/12/22 00:53:35;;;;;;;4.07;3.33;;;-4.70;99.90;;;;;;4880831;29;20143;-63
2021/12/22 00:56:03;;;;;;;4.10;3.37;;;-4.70;99.90;;;;;;4878709;29;20061;-67
2021/12/22 00:58:30;;;;;;;5.37;3.50;;;-4.70;99.90;;;;;;4880155;29;20101;-67
2021/12/22 01:00:57;;;;;;;3.87;3.43;;;-4.70;99.90;;;;;;4877847;29;20060;-66
2021/12/22 01:03:24;;;;;;;7.53;4.03;;;-4.80;99.90;;;;;;4881581;29;20052;-71
2021/12/22 01:05:51;;;;;;;4.50;3.43;;;-4.80;99.90;;;;;;4880515;29;20738;-66
2021/12/22 01:08:20;;;;;;;4.00;3.10;;;-4.80;99.90;;;;;;4876761;29;20093;-72
2021/12/22 01:10:47;;;;;;;5.83;3.70;;;-4.90;99.90;;;;;;4881645;29;20060;-71
2021/12/22 01:13:14;;;;;;;4.83;3.60;;;-4.90;99.90;;;;;;4880560;29;20152;-71
2021/12/22 01:15:41;;;;;;;2.87;2.53;;;-4.90;99.90;;;;;;4880825;29;20868;-68
2021/12/22 01:18:13;;;;;;;3.70;3.17;;;-4.90;99.90;;;;;;4881094;29;20152;-72
2021/12/22 01:21:01;;;;;;;3.93;2.93;;;-4.90;99.90;;;;;;4879308;29;20143;-71
2021/12/22 01:23:34;;;;;;;4.43;3.30;;;-5.00;99.90;;;;;;4879796;29;20071;-68
2021/12/22 01:26:04;;;;;;;5.73;3.60;;;-5.10;99.90;;;;;;4879717;29;20093;-66
2021/12/22 01:28:31;;;;;;;5.40;3.88;;;-5.10;99.90;;;;;;4881379;29;20127;-68
2021/12/22 01:31:02;;;;;;;5.67;4.03;;;-5.20;99.90;;;;;;4879047;29;20048;-65
2021/12/22 01:33:29;;;;;;;8.03;5.07;;;-5.20;99.90;;;;;;4880949;29;20048;-65
2021/12/22 01:35:57;;;;;;;7.00;3.53;;;-5.30;99.90;;;;;;4880094;29;20075;-65
2021/12/22 01:38:24;;;;;;;6.40;4.47;;;-5.30;99.90;;;;;;4878811;29;20711;-65
2021/12/22 01:40:51;;;;;;;6.90;3.13;;;-5.30;99.90;;;;;;4881192;29;20084;-65
2021/12/22 01:43:18;;;;;;;6.57;3.47;;;-5.30;99.90;;;;;;4880538;29;20084;-65
2021/12/22 01:49:11;;;;;;;6.37;3.10;;;-5.20;99.90;;;;;;4877346;29;20088;-68
2021/12/22 01:51:56;;;;;;;5.27;3.30;;;-5.10;99.90;;;;;;4877066;29;20205;-69
2021/12/22 01:54:34;;;;;;;3.87;2.57;;;-5.10;99.90;;;;;;4878529;29;20052;-68
2021/12/22 01:57:07;;;;;;;7.30;3.87;;;-5.10;99.90;;;;;;4879206;29;21207;-70
2021/12/22 01:59:34;;;;;;;4.80;3.00;;;-5.00;99.90;;;;;;4879085;29;20056;-67
2021/12/22 02:02:02;;;;;;;4.17;2.50;;;-5.00;99.90;;;;;;4893797;29;20049;-65
2021/12/22 02:04:29;;;;;;;2.83;2.23;;;-5.00;99.90;;;;;;4875836;29;20944;-64
2021/12/22 02:06:56;;;;;;;3.90;3.07;;;-5.00;99.90;;;;;;4878483;29;20056;-65
2021/12/22 02:10:22;;;;;;;3.83;3.10;;;-5.00;99.90;;;;;;4877165;29;20079;-66
2021/12/22 02:12:12;;;;;;;4.23;3.17;;;-5.00;99.90;;;;;;4872726;29;20056;-69
2021/12/22 02:14:41;;;;;;;5.67;3.27;;;-5.00;99.90;;;;;;4877376;29;20171;-65
2021/12/22 02:17:11;;;;;;;3.23;2.80;;;-5.00;99.90;;;;;;4879957;29;20143;-69
2021/12/22 02:19:43;;;;;;;2.90;2.40;;;-5.10;99.90;;;;;;4880598;29;20216;-66
2021/12/22 02:22:14;;;;;;;4.23;3.83;;;-5.10;99.90;;;;;;4878657;29;20052;-69
2021/12/22 02:24:50;;;;;;;3.47;2.40;;;-5.20;99.90;;;;;;4878007;29;20068;-64
2021/12/22 02:27:31;;;;;;;5.77;3.53;;;-5.20;99.90;;;;;;4880027;29;20058;-66
2021/12/22 02:30:02;;;;;;;3.70;3.23;;;-5.30;99.90;;;;;;4879138;29;20654;-63
2021/12/22 02:35:15;;;;;;;4.50;3.33;;;-5.40;99.90;;;;;;4880251;29;20053;-67
2021/12/22 02:37:44;;;;;;;3.27;2.97;;;-5.40;99.90;;;;;;4877654;29;20143;-65
2021/12/22 02:40:16;;;;;;;4.93;3.35;;;-5.50;99.90;;;;;;4878987;29;20108;-68
2021/12/22 02:42:47;;;;;;;3.30;3.00;;;-5.60;99.90;;;;;;4876591;29;20139;-66
2021/12/22 02:45:17;;;;;;;4.60;2.67;;;-5.60;99.90;;;;;;4878036;29;20053;-67
2021/12/22 02:47:44;;;;;;;3.75;3.00;;;-5.70;99.90;;;;;;4874922;29;20060;-64
2021/12/22 02:50:13;;;;;;;4.07;2.80;;;-5.70;99.90;;;;;;4879966;29;20148;-68
2021/12/22 02:53:05;;;;;;;3.43;2.70;;;-5.80;99.90;;;;;;4874937;29;20060;-67
2021/12/22 02:55:43;;;;;;;2.93;2.37;;;-5.80;99.90;;;;;;4873397;29;20644;-64
2021/12/22 02:58:17;;;;;;;3.97;2.77;;;-5.90;99.90;;;;;;4878410;29;20492;-65
2021/12/22 03:00:59;;;;;;;3.73;3.23;;;-5.90;99.90;;;;;;4873730;29;20112;-66
2021/12/22 03:05:54;;;;;;;4.40;3.57;;;-5.90;99.90;;;;;;4875196;29;20139;-68
2021/12/22 03:08:21;;;;;;;5.37;3.93;;;-5.90;99.90;;;;;;4875089;29;20052;-65
2021/12/22 03:10:51;;;;;;;4.53;3.70;;;-5.90;99.90;;;;;;4876266;29;20131;-63
2021/12/22 03:13:19;;;;;;;;;;;-5.90;99.90;;;;;;4876950;29;20052;-68
2021/12/22 03:15:46;;;;;;;7.30;3.43;;;-5.90;99.90;;;;;;4878513;29;19954;-65
2021/12/22 03:18:13;;;;;;;5.07;3.87;;;-5.90;99.90;;;;;;4877657;29;20076;-68
2021/12/22 03:20:44;;;;;;;6.87;3.17;;;-5.90;99.90;;;;;;4878345;29;20049;-65
2021/12/22 03:23:11;;;;;;;6.20;4.13;;;-5.90;99.90;;;;;;4878361;29;20502;-69
2021/12/22 03:25:39;;;;;;;9.20;3.60;;;-5.80;99.90;;;;;;4880029;29;20140;-63
2021/12/22 03:28:06;;;;;;;5.83;4.50;;;-5.80;99.90;;;;;;4878560;29;20065;-63
2021/12/22 03:30:33;;;;;;;4.37;3.97;;;-5.80;99.90;;;;;;4876989;29;20999;-68
2021/12/22 03:33:00;;;;;;;5.10;3.80;;;-5.70;99.90;;;;;;4878519;29;20056;-65
2021/12/22 03:35:27;;;;;;;6.43;5.17;;;-5.70;99.90;;;;;;4879641;29;20092;-67
2021/12/22 03:37:57;;;;;;;4.67;3.77;;;-5.70;99.90;;;;;;4877747;29;20044;-69
2021/12/22 03:40:26;;;;;;;5.23;4.07;;;-5.70;99.90;;;;;;4874482;29;20060;-63
2021/12/22 03:42:54;;;;;;;6.67;4.77;;;-5.60;99.90;;;;;;4880337;29;20080;-66
2021/12/22 03:45:21;;;;;;;5.50;3.77;;;-5.60;99.90;;;;;;4877297;29;20109;-67
2021/12/22 03:47:49;;;;;;;4.57;3.53;;;-5.60;99.90;;;;;;4877220;29;20059;-70
2021/12/22 03:50:17;;;;;;;7.80;4.80;;;-5.50;99.90;;;;;;4878050;29;20407;-66
2021/12/22 03:52:45;;;;;;;5.70;4.37;;;-5.40;99.90;;;;;;4878014;29;20057;-66
2021/12/22 03:55:12;;;;;;;7.80;5.27;;;-5.40;99.90;;;;;;4876505;29;20145;-63
2021/12/22 03:57:39;;;;;;;4.93;4.17;;;-5.40;99.90;;;;;;4877346;29;20597;-66
2021/12/22 04:00:10;;;;;;;6.80;3.77;;;-5.30;99.90;;;;;;4878498;29;21397;-64
2021/12/22 04:02:38;;;;;;;20.93;10.07;;;-5.30;99.90;;;;;;4875808;29;20456;-64
2021/12/22 04:05:06;;;;;;;5.87;4.00;;;-5.20;99.90;;;;;;4877854;29;20534;-66
2021/12/22 04:07:34;;;;;;;5.87;4.43;;;-5.20;99.90;;;;;;4879291;29;20139;-64
2021/12/22 04:10:09;;;;;;;4.70;4.00;;;-5.10;99.90;;;;;;4876898;29;20415;-65
2021/12/22 04:12:36;;;;;;;5.17;3.97;;;-5.10;99.90;;;;;;4877661;29;20087;-66
2021/12/22 04:15:03;;;;;;;5.70;4.17;;;-5.00;99.90;;;;;;4876683;29;20083;-69
2021/12/22 04:17:30;;;;;;;5.73;4.23;;;-4.90;99.90;;;;;;4878040;29;20455;-67
2021/12/22 04:19:57;;;;;;;5.17;4.17;;;-4.90;99.90;;;;;;4879127;29;20175;-70
2021/12/22 04:22:23;;;;;;;4.23;3.83;;;-4.80;99.90;;;;;;4880534;29;20056;-68
2021/12/22 04:24:50;;;;;;;6.47;3.93;;;-4.80;99.90;;;;;;4882267;29;20167;-65
2021/12/22 04:27:17;;;;;;;5.30;4.50;;;-4.80;99.90;;;;;;4882663;29;20415;-66
2021/12/22 04:29:44;;;;;;;6.70;4.47;;;-4.80;99.90;;;;;;4881292;29;20258;-69
2021/12/22 04:32:11;;;;;;;4.57;4.00;;;-4.90;99.90;;;;;;4882078;29;20089;-65
2021/12/22 04:34:38;;;;;;;5.27;3.83;;;-4.90;99.90;;;;;;4881628;29;20076;-69
2021/12/22 04:37:05;;;;;;;5.00;4.03;;;-4.90;99.90;;;;;;4880617;29;20188;-66
2021/12/22 04:39:33;;;;;;;7.17;3.93;;;-5.00;99.90;;;;;;4883049;29;20819;-65
2021/12/22 04:42:00;;;;;;;6.53;5.00;;;-5.00;99.90;;;;;;4881035;29;20052;-64
2021/12/22 04:44:27;;;;;;;5.63;3.97;;;-5.00;99.90;;;;;;4880127;29;20175;-66
2021/12/22 04:46:54;;;;;;;6.97;4.00;;;-5.00;99.90;;;;;;4881639;29;20048;-67
2021/12/22 04:49:21;;;;;;;8.70;4.30;;;-5.00;99.90;;;;;;4882554;29;20060;-65
2021/12/22 04:51:51;;;;;;;5.83;3.77;;;-4.90;99.90;;;;;;4881002;29;20080;-64
2021/12/22 04:54:31;;;;;;;4.10;3.70;;;-4.90;99.90;;;;;;4878984;29;20432;-68
2021/12/22 04:56:58;;;;;;;4.07;3.42;;;-4.90;99.90;;;;;;4882374;29;20048;-64
2021/12/22 04:59:25;;;;;;;4.37;3.97;;;-4.90;99.90;;;;;;4879936;29;20135;-70
2021/12/22 05:01:52;;;;;;;4.80;4.20;;;-4.90;99.90;;;;;;4880348;29;20048;-66
2021/12/22 05:04:19;;;;;;;5.40;3.27;;;-4.80;99.90;;;;;;4878962;29;20076;-68
2021/12/22 05:06:47;;;;;;;4.27;2.93;;;-4.80;99.90;;;;;;4881719;29;20159;-65
2021/12/22 05:09:14;;;;;;;5.13;4.13;;;-4.80;99.90;;;;;;4879879;29;20083;-64
2021/12/22 05:11:41;;;;;;;5.83;3.97;;;-4.80;99.90;;;;;;4879555;29;20729;-67
2021/12/22 05:14:08;;;;;;;3.87;3.40;;;-4.80;99.90;;;;;;4880852;29;20060;-65
2021/12/22 05:16:44;;;;;;;5.77;3.63;;;-4.70;99.90;;;;;;4879100;29;20561;-68
2021/12/22 05:19:14;;;;;;;12.20;6.07;;;-4.70;99.90;;;;;;4879033;29;20203;-69
2021/12/22 05:21:43;;;;;;;6.55;5.07;;;-4.70;99.90;;;;;;4877901;29;20120;-66
2021/12/22 05:24:10;;;;;;;8.47;5.10;;;-4.60;99.90;;;;;;4880205;29;20132;-70
2021/12/22 05:26:37;;;;;;;8.43;5.10;;;-4.60;99.90;;;;;;4879453;29;20131;-67
2021/12/22 05:29:04;;;;;;;6.43;5.90;;;-4.60;99.90;;;;;;4880968;29;20179;-65
2021/12/22 05:31:31;;;;;;;8.27;4.87;;;-4.60;99.90;;;;;;4880007;29;20057;-68
2021/12/22 05:33:58;;;;;;;4.83;4.07;;;-4.50;99.90;;;;;;4879185;29;20143;-65
2021/12/22 05:36:25;;;;;;;7.73;4.77;;;-4.50;99.90;;;;;;4878615;29;20446;-65
2021/12/22 05:38:52;;;;;;;4.80;4.00;;;-4.50;99.90;;;;;;4879357;29;20056;-70
2021/12/22 05:41:19;;;;;;;5.53;3.30;;;-4.40;99.90;;;;;;4879658;29;20060;-63
2021/12/22 05:43:46;;;;;;;5.93;3.67;;;-4.40;99.90;;;;;;4880367;29;20147;-68
2021/12/22 05:46:14;;;;;;;4.57;3.60;;;-4.40;99.90;;;;;;4879359;29;20056;-69
2021/12/22 05:48:41;;;;;;;3.80;3.43;;;-4.40;99.90;;;;;;4876700;29;20178;-71
2021/12/22 05:51:08;;;;;;;4.50;3.97;;;-4.30;99.90;;;;;;4880861;29;20143;-66
2021/12/22 05:53:36;;;;;;;6.20;3.83;;;-4.30;99.90;;;;;;4878653;29;20148;-70
2021/12/22 05:56:03;;;;;;;5.30;4.03;;;-4.30;99.90;;;;;;4877626;29;20528;-65
2021/12/22 05:58:30;;;;;;;6.07;3.83;;;-4.30;99.90;;;;;;4876933;29;20044;-65
2021/12/22 06:00:57;;;;;;;6.50;4.33;;;-4.30;99.90;;;;;;4877404;29;20143;-69
2021/12/22 06:03:24;;;;;;;4.50;3.20;;;-4.30;99.90;;;;;;4879555;29;20066;-64
2021/12/22 06:05:51;;;;;;;6.90;4.87;;;-4.30;99.90;;;;;;4895220;29;20508;-67
2021/12/22 06:08:19;;;;;;;7.13;4.17;;;-4.30;99.90;;;;;;4878845;29;20076;-66
2021/12/22 06:10:46;;;;;;;5.90;4.53;;;-4.30;99.90;;;;;;4876100;29;20132;-63
2021/12/22 06:13:13;;;;;;;5.10;4.60;;;-4.30;99.90;;;;;;4879155;29;20076;-64
2021/12/22 06:15:40;;;;;;;7.07;6.37;;;-4.40;99.90;;;;;;4879372;29;20048;-69
2021/12/22 06:18:08;;;;;;;9.53;8.10;;;-4.30;99.90;;;;;;4879656;29;20064;-65
2021/12/22 06:20:35;;;;;;;9.80;7.93;;;-4.40;99.90;;;;;;4877001;29;20112;-66
2021/12/22 06:23:03;;;;;;;7.93;7.23;;;-4.40;99.90;;;;;;4878430;29;20148;-64
2021/12/22 06:25:34;;;;;;;6.23;5.63;;;-4.40;99.90;;;;;;4878968;29;20584;-66
2021/12/22 06:28:00;;;;;;;6.10;5.50;;;-4.50;99.90;;;;;;4880410;29;20089;-67
2021/12/22 06:30:27;;;;;;;4.77;4.33;;;-4.50;99.90;;;;;;4875607;29;20068;-66
2021/12/22 06:32:54;;;;;;;6.23;5.10;;;-4.60;99.90;;;;;;4880016;29;20052;-66
2021/12/22 06:35:22;;;;;;;5.60;4.60;;;-4.70;99.90;;;;;;4877010;29;20104;-66
2021/12/22 06:37:51;;;;;;;6.77;6.07;;;-4.70;99.90;;;;;;4878704;29;20147;-67
2021/12/22 06:40:18;;;;;;;11.23;7.40;;;-4.70;99.90;;;;;;4876036;29;20108;-66
2021/12/22 06:42:45;;;;;;;10.80;7.80;;;-4.80;99.90;;;;;;4876372;29;20148;-67
2021/12/22 06:45:14;;;;;;;10.80;7.47;;;-4.80;99.90;;;;;;4878107;29;20136;-66
2021/12/22 06:47:42;;;;;;;10.10;7.23;;;-4.80;99.90;;;;;;4877789;29;20083;-71
2021/12/22 06:50:10;;;;;;;8.60;6.97;;;-4.90;99.90;;;;;;4878660;29;20420;-66
2021/12/22 06:52:37;;;;;;;9.60;7.10;;;-4.80;99.90;;;;;;4876316;29;20131;-65
2021/12/22 06:55:04;;;;;;;9.40;7.57;;;-4.80;99.90;;;;;;4878222;29;20113;-69
2021/12/22 06:57:33;;;;;;;11.80;7.47;;;-4.80;99.90;;;;;;4878365;29;20064;-69
2021/12/22 07:00:03;;;;;;;10.63;7.50;;;-4.80;99.90;;;;;;4878564;29;20108;-70
2021/12/22 07:02:35;;;;;;;13.73;6.80;;;-4.70;99.90;;;;;;4876720;29;20055;-66
2021/12/22 07:05:07;;;;;;;8.00;6.37;;;-4.70;99.90;;;;;;4878373;29;20056;-68
2021/12/22 07:07:35;;;;;;;8.97;6.37;;;-4.70;99.90;;;;;;4878067;29;20140;-67
2021/12/22 07:10:04;;;;;;;7.70;6.27;;;-4.60;99.90;;;;;;4877073;29;20121;-64
2021/12/22 07:12:31;;;;;;;6.80;5.93;;;-4.60;99.90;;;;;;4876721;29;20072;-67
2021/12/22 07:14:58;;;;;;;7.03;5.40;;;-4.50;99.90;;;;;;4878570;29;20063;-66
2021/12/22 07:17:25;;;;;;;9.20;6.83;;;-4.50;99.90;;;;;;4877847;29;20120;-64
2021/12/22 07:19:52;;;;;;;14.00;10.87;;;-4.50;99.90;;;;;;4877642;29;20080;-64
2021/12/22 07:22:19;;;;;;;12.43;7.40;;;-4.40;99.90;;;;;;4877977;29;20056;-67
2021/12/22 07:24:46;;;;;;;15.03;8.27;;;-4.30;99.90;;;;;;4892908;29;20044;-68
2021/12/22 07:27:13;;;;;;;16.77;9.27;;;-4.30;99.90;;;;;;4877988;29;20496;-69
2021/12/22 07:29:41;;;;;;;21.00;11.60;;;-4.30;99.90;;;;;;4876483;29;20486;-67
2021/12/22 07:32:08;;;;;;;16.70;11.83;;;-4.20;99.90;;;;;;4878502;29;20183;-69
2021/12/22 07:34:46;;;;;;;10.73;8.20;;;-4.20;99.90;;;;;;4876073;29;20163;-66
2021/12/22 07:37:27;;;;;;;8.70;7.80;;;-4.10;99.90;;;;;;4878462;29;20080;-66
2021/12/22 07:39:54;;;;;;;9.30;7.87;;;-4.00;99.90;;;;;;4877945;29;20128;-67
2021/12/22 07:42:21;;;;;;;7.10;6.40;;;-3.90;99.90;;;;;;4875093;29;20175;-67
2021/12/22 07:44:48;;;;;;;8.63;6.37;;;-3.80;99.90;;;;;;4878405;29;20052;-63
2021/12/22 07:47:15;;;;;;;6.50;5.90;;;-3.60;99.90;;;;;;4876775;29;20053;-66
2021/12/22 07:49:42;;;;;;;8.53;5.73;;;-3.50;99.90;;;;;;4877933;29;20908;-67
2021/12/22 07:52:09;;;;;;;6.90;5.75;;;-3.40;99.90;;;;;;4877092;29;20183;-68
2021/12/22 07:54:36;;;;;;;6.00;4.73;;;-3.40;99.90;;;;;;4875144;29;20061;-63
2021/12/22 07:57:03;;;;;;;6.55;4.35;;;-3.30;99.90;;;;;;4880902;29;20128;-67
2021/12/22 07:59:30;;;;;;;3.07;2.77;;;-3.30;99.90;;;;;;4879226;29;20148;-64
2021/12/22 08:01:58;;;;;;;3.40;2.63;;;-3.20;99.90;;;;;;4880126;29;20152;-65
2021/12/22 08:04:25;;;;;;;3.47;2.72;;;-3.20;99.90;;;;;;4878084;29;20061;-63
2021/12/22 08:06:52;;;;;;;2.43;2.23;;;-3.20;99.90;;;;;;4882580;29;20151;-65
2021/12/22 08:09:25;;;;;;;3.45;3.05;;;-3.20;99.90;;;;;;4880877;29;20057;-63
2021/12/22 08:11:56;;;;;;;5.80;3.55;;;-3.10;99.90;;;;;;4881020;29;20064;-67
2021/12/22 08:14:24;;;;;;;5.97;4.27;;;-3.20;99.90;;;;;;4878533;29;20067;-72
2021/12/22 08:16:51;;;;;;;3.10;2.83;;;-3.20;99.90;;;;;;4878826;29;20067;-67
2021/12/22 08:19:18;;;;;;;3.60;3.20;;;-3.20;99.90;;;;;;4880668;29;20041;-67
2021/12/22 08:21:45;;;;;;;3.03;2.35;;;-3.20;99.90;;;;;;4878678;29;20136;-67
2021/12/22 08:24:13;;;;;;;2.53;2.33;;;-3.30;99.90;;;;;;4880164;29;20053;-65
2021/12/22 08:26:40;;;;;;;4.20;1.90;;;-3.30;99.90;;;;;;4878857;29;20859;-65
2021/12/22 08:29:07;;;;;;;3.85;2.58;;;-3.40;99.90;;;;;;4877718;29;20489;-66
2021/12/22 08:31:34;;;;;;;3.60;2.47;;;-3.40;99.90;;;;;;4880174;29;20155;-64
2021/12/22 08:34:01;;;;;;;4.80;2.58;;;-3.40;99.90;;;;;;4879208;29;20056;-66
2021/12/22 08:39:14;;;;;;;4.57;3.78;;;-3.60;99.90;;;;;;4880392;29;20072;-65
2021/12/22 08:41:47;;;;;;;3.70;3.00;;;-3.60;99.90;;;;;;4880292;29;20380;-63
2021/12/22 08:44:18;;;;;;;3.35;3.00;;;-3.70;99.90;;;;;;4879898;29;20127;-69
2021/12/22 08:46:49;;;;;;;6.57;3.67;;;-3.80;99.90;;;;;;4877405;29;20055;-66
2021/12/22 08:49:17;;;;;;;7.83;4.27;;;-3.90;99.90;;;;;;4878727;29;20182;-67
2021/12/22 08:51:44;;;;;;;8.83;5.37;;;-4.00;99.90;;;;;;4879411;29;20155;-67
2021/12/22 08:54:11;;;;;;;9.93;6.73;;;-4.10;99.90;;;;;;4882367;29;20292;-66
2021/12/22 08:56:39;;;;;;;11.53;6.93;;;-4.20;99.90;;;;;;4876665;29;20380;-70
2021/12/22 08:59:08;;;;;;;9.07;7.20;;;-4.30;99.90;;;;;;4878748;29;20436;-67
2021/12/22 09:01:36;;;;;;;9.98;8.77;;;-4.30;99.90;;;;;;4878630;29;20053;-63
2021/12/22 09:04:06;;;;;;;15.57;9.00;;;-4.40;99.90;;;;;;4880728;29;20060;-65
2021/12/22 09:06:33;;;;;;;14.93;10.60;;;-4.50;99.90;;;;;;4879676;29;20563;-66
2021/12/22 09:09:00;;;;;;;12.83;9.43;;;-4.50;99.90;;;;;;4881007;29;20220;-65
2021/12/22 09:11:28;;;;;;;13.90;8.73;;;-4.50;99.90;;;;;;4881604;29;20135;-65
2021/12/22 09:13:56;;;;;;;11.63;7.80;;;-4.50;99.90;;;;;;4880537;29;20089;-69
2021/12/22 09:16:23;;;;;;;11.63;8.17;;;-4.50;99.90;;;;;;4879005;29;20859;-68
2021/12/22 09:18:50;;;;;;;15.90;10.13;;;-4.50;99.90;;;;;;4880269;29;20052;-67
2021/12/22 09:21:17;;;;;;;12.50;8.23;;;-4.50;99.90;;;;;;4880851;29;20500;-67
2021/12/22 09:23:44;;;;;;;14.63;8.60;;;-4.50;99.90;;;;;;4881578;29;20227;-66
2021/12/22 09:26:11;;;;;;;11.13;8.17;;;-4.50;99.90;;;;;;4880306;29;21412;-66
2021/12/22 09:28:38;;;;;;;11.77;9.03;;;-4.50;99.90;;;;;;4880374;29;20084;-63
2021/12/22 09:31:05;;;;;;;13.87;8.10;;;-4.60;99.90;;;;;;4877652;29;20159;-68
2021/12/22 09:33:34;;;;;;;11.63;9.27;;;-4.60;99.90;;;;;;4880703;29;20048;-68
2021/12/22 09:36:02;;;;;;;9.30;7.97;;;-4.60;99.90;;;;;;4879403;29;20153;-64
2021/12/22 09:38:29;;;;;;;10.53;8.07;;;-4.60;99.90;;;;;;4880281;29;20207;-68
2021/12/22 09:40:59;;;;;;;9.70;7.73;;;-4.60;99.90;;;;;;4879874;29;20076;-64
2021/12/22 09:43:27;;;;;;;10.50;9.30;;;-4.60;99.90;;;;;;4880322;29;20119;-64
2021/12/22 09:46:00;;;;;;;12.13;7.33;;;-4.60;99.90;;;;;;4879413;29;20052;-67
2021/12/22 09:53:46;;;;;;;8.10;5.97;;;-4.60;99.90;;;;;;4870921;29;20057;-64
2021/12/22 09:56:19;;;;;;;8.70;6.03;;;-4.60;99.90;;;;;;4878905;29;20144;-65
2021/12/22 09:58:48;;;;;;;9.60;6.60;;;-4.60;99.90;;;;;;4878661;29;20079;-68
2021/12/22 10:01:21;;;;;;;8.23;7.43;;;-4.70;99.90;;;;;;4878480;29;20140;-68
2021/12/22 10:03:48;;;;;;;13.67;8.93;;;-4.70;99.90;;;;;;4880660;29;20056;-66
2021/12/22 10:06:15;;;;;;;11.33;7.90;;;-4.70;99.90;;;;;;4879469;29;21421;-64
2021/12/22 10:08:54;;;;;;;10.50;7.47;;;-4.70;99.90;;;;;;4880627;29;20104;-66
2021/12/22 10:11:21;;;;;;;9.27;6.67;;;-4.70;99.90;;;;;;4877999;29;20132;-63
2021/12/22 10:13:48;;;;;;;7.23;6.07;;;-4.70;99.90;;;;;;4879692;29;20499;-66
2021/12/22 10:16:16;;;;;;;6.27;4.47;;;-4.70;99.90;;;;;;4878269;29;20728;-68
2021/12/22 10:18:44;;;;;;;6.70;4.90;;;-4.70;99.90;;;;;;4877130;29;20060;-65
2021/12/22 10:21:15;;;;;;;6.00;4.57;;;-4.70;99.90;;;;;;4880859;29;20139;-68
2021/12/22 10:23:49;;;;;;;5.80;4.40;;;-4.70;99.90;;;;;;4879850;29;20085;-68
2021/12/22 10:26:20;;;;;;;5.23;4.37;;;-4.70;99.90;;;;;;4879178;29;20135;-65
2021/12/22 10:28:47;;;;;;;6.83;6.17;;;-4.70;99.90;;;;;;4879534;29;20085;-68
2021/12/22 10:31:15;;;;;;;4.50;4.03;;;-4.70;99.90;;;;;;4878261;29;20052;-68
2021/12/22 10:33:43;;;;;;;5.20;2.90;;;-4.70;99.90;;;;;;4880228;29;20143;-65
2021/12/22 10:36:14;;;;;;;4.13;3.70;;;-4.70;99.90;;;;;;4879644;29;21170;-65
2021/12/22 10:38:52;;;;;;;5.03;3.77;;;-4.60;99.90;;;;;;4878385;29;20092;-64
2021/12/22 10:41:26;;;;;;;4.83;2.93;;;-4.60;99.90;;;;;;4878267;29;20057;-69
2021/12/22 10:43:53;;;;;;;3.60;3.10;;;-4.60;99.90;;;;;;4880298;29;20052;-68
2021/12/22 10:46:31;;;;;;;6.23;3.67;;;-4.60;99.90;;;;;;4876255;29;20163;-66
2021/12/22 10:49:20;;;;;;;6.33;3.70;;;-4.60;99.90;;;;;;4880692;29;20057;-69
2021/12/22 10:51:58;;;;;;;3.70;3.30;;;-4.60;99.90;;;;;;4880267;29;20059;-66
2021/12/22 10:54:37;;;;;;;5.37;4.00;;;-4.60;99.90;;;;;;4877108;29;20057;-63
2021/12/22 10:57:10;;;;;;;3.47;3.17;;;-4.60;99.90;;;;;;4880454;29;20053;-62
2021/12/22 10:59:49;;;;;;;4.50;4.10;;;-4.50;99.90;;;;;;4878279;29;20104;-66
2021/12/22 11:02:31;;;;;;;3.63;3.08;;;-4.50;99.90;;;;;;4877698;29;20049;-64
2021/12/22 11:05:03;;;;;;;4.70;4.30;;;-4.50;99.90;;;;;;4879631;29;20163;-66
2021/12/22 11:07:39;;;;;;;4.00;3.57;;;-4.50;99.90;;;;;;4879170;29;20068;-63
2021/12/22 11:10:23;;;;;;;3.77;3.17;;;-4.50;99.90;;;;;;4879826;29;20053;-65
2021/12/22 11:12:59;;;;;;;4.40;3.97;;;-4.50;99.90;;;;;;4876300;29;20063;-66
2021/12/22 11:15:26;;;;;;;5.03;3.60;;;-4.50;99.90;;;;;;4878878;29;20052;-66
2021/12/22 11:17:53;;;;;;;5.77;4.17;;;-4.50;99.90;;;;;;4878352;29;20151;-64
2021/12/22 11:20:24;;;;;;;4.70;4.30;;;-4.40;99.90;;;;;;4877929;29;20112;-66
2021/12/22 11:25:20;;;;;;;7.97;4.60;;;-4.40;99.90;;;;;;4878797;29;20045;-66
2021/12/22 11:27:49;;;;;;;5.30;4.00;;;-4.40;99.90;;;;;;4878636;29;20693;-65
2021/12/22 11:30:16;;;;;;;7.73;5.20;;;-4.40;99.90;;;;;;4875480;29;20059;-65
2021/12/22 11:32:44;;;;;;;8.73;5.63;;;-4.40;99.90;;;;;;4878472;29;20057;-67
2021/12/22 11:35:13;;;;;;;7.40;5.50;;;-4.40;99.90;;;;;;4878805;29;20086;-67
2021/12/22 11:37:41;;;;;;;7.25;4.80;;;-4.40;99.90;;;;;;4878175;29;20128;-67
2021/12/22 11:40:11;;;;;;;8.20;4.33;;;-4.40;99.90;;;;;;4879603;29;20147;-63
2021/12/22 11:42:39;;;;;;;6.05;4.25;;;-4.40;99.90;;;;;;4876226;29;20224;-67
2021/12/22 11:45:19;;;;;;;7.33;4.97;;;-4.40;99.90;;;;;;4879318;29;20160;-63
2021/12/22 11:47:48;;;;;;;5.47;4.47;;;-4.40;99.90;;;;;;4878345;29;20107;-69
2021/12/22 11:50:25;;;;;;;7.33;5.63;;;-4.40;99.90;;;;;;4877749;29;20065;-65
2021/12/22 11:53:12;;;;;;;7.20;4.87;;;-4.40;99.90;;;;;;4878920;29;20144;-63
2021/12/22 11:55:57;;;;;;;6.33;4.77;;;-4.40;99.90;;;;;;4877780;29;20124;-66
2021/12/22 11:58:34;;;;;;;6.03;4.10;;;-4.40;99.90;;;;;;4876545;29;20108;-65
2021/12/22 12:01:11;;;;;;;6.40;5.67;;;-4.40;99.90;;;;;;4877560;29;20072;-66
2021/12/22 12:03:43;;;;;;;5.97;4.87;;;-4.30;99.90;;;;;;4877998;29;20068;-68
2021/12/22 12:06:21;;;;;;;5.87;5.27;;;-4.30;99.90;;;;;;4878501;29;20060;-66
2021/12/22 12:09:09;;;;;;;4.30;3.90;;;-4.30;99.90;;;;;;4876545;29;20085;-67
2021/12/22 12:11:40;;;;;;;7.10;4.83;;;-4.30;99.90;;;;;;4878004;29;20120;-64
2021/12/22 12:15:26;;;;;;;4.93;4.27;;;-4.30;99.90;;;;;;4877388;29;20045;-65
2021/12/22 12:23:19;;;;;;;;;;;-4.30;99.90;;;;;;4876929;29;20207;-66
2021/12/22 12:25:46;;;;;;;6.53;3.30;;;-4.40;99.90;;;;;;4877519;29;19960;-68
2021/12/22 12:28:15;;;;;;;3.90;3.40;;;-4.30;99.90;;;;;;4879707;29;20649;-66
2021/12/22 12:30:51;;;;;;;3.77;3.30;;;-4.40;99.90;;;;;;4875891;29;20064;-63
2021/12/22 12:33:33;;;;;;;3.60;3.27;;;-4.40;99.90;;;;;;4878282;29;20061;-65
2021/12/22 12:36:04;;;;;;;6.07;3.77;;;-4.40;99.90;;;;;;4878876;29;20056;-64
2021/12/22 12:38:40;;;;;;;3.97;3.27;;;-4.40;99.90;;;;;;4876074;29;20072;-63
2021/12/22 12:41:12;;;;;;;3.97;3.53;;;-4.40;99.90;;;;;;4880038;29;20064;-66
2021/12/22 12:43:45;;;;;;;5.60;3.30;;;-4.50;99.90;;;;;;4879276;29;20523;-65
2021/12/22 12:46:24;;;;;;;5.80;3.67;;;-4.50;99.90;;;;;;4880768;29;20045;-69
2021/12/22 12:49:03;;;;;;;4.37;3.83;;;-4.50;99.90;;;;;;4880804;29;20084;-63
2021/12/22 12:51:36;;;;;;;5.75;3.15;;;-4.50;99.90;;;;;;4880705;29;20052;-65
2021/12/22 12:54:04;;;;;;;6.00;3.90;;;-4.50;99.90;;;;;;4880317;29;20079;-66
2021/12/22 12:56:38;;;;;;;4.87;4.10;;;-4.50;99.90;;;;;;4876962;29;20150;-64
2021/12/22 12:59:07;;;;;;;6.07;3.33;;;-4.60;99.90;;;;;;4881939;29;20151;-62
2021/12/22 13:01:47;;;;;;;4.03;3.17;;;-4.60;99.90;;;;;;4880444;29;20757;-68
2021/12/22 13:04:20;;;;;;;3.13;2.35;;;-4.60;99.90;;;;;;4881138;29;20088;-65
2021/12/22 13:06:48;;;;;;;4.47;2.53;;;-4.60;99.90;;;;;;4879735;29;20376;-69
2021/12/22 13:09:26;;;;;;;3.73;3.30;;;-4.70;99.90;;;;;;4876880;29;20152;-68
2021/12/22 13:17:43;;;;;;;3.07;2.77;;;-4.80;99.90;;;;;;4878688;29;20083;-62
2021/12/22 13:20:19;;;;;;;4.10;2.90;;;-4.90;99.90;;;;;;4878974;29;20084;-64
2021/12/22 13:22:48;;;;;;;3.33;3.03;;;-4.90;99.90;;;;;;4874150;29;20060;-66
2021/12/22 13:25:26;;;;;;;2.23;2.03;;;-5.00;99.90;;;;;;4877032;29;21401;-66
2021/12/22 13:27:56;;;;;;;4.17;2.97;;;-5.00;99.90;;;;;;4878070;29;20315;-65
2021/12/22 13:30:26;;;;;;;5.07;3.03;;;-5.10;99.90;;;;;;4873797;29;20100;-65